Time;durP1;ratioP1;P1;durP2;ratioP2;P2;SDS_P1;SDS_P2;PMS_P1;PMS_P2;Temp;Humidity;BMP_temperature;BMP_pressure;BME280_temperature;BME280_humidity;BME280_pressure;Samples;Min_cycle;Max_cycle;Signal;HPM_P1;HPM_P2
2023/03/13 00:00:17;;;;;;;0.80;0.80;;;;;;;;;;4970273;28;20481;-81
2023/03/13 00:02:44;;;;;;;0.77;0.77;;;;;;;;;;4973998;28;20031;-81
2023/03/13 00:05:10;;;;;;;0.70;0.60;;;;;;;;;;4976357;28;20029;-80
2023/03/13 00:07:36;;;;;;;2.85;1.02;;;;;;;;;;4971170;28;20035;-81
2023/03/13 00:10:02;;;;;;;1.33;0.70;;;;;;;;;;4973722;28;20073;-81
2023/03/13 00:12:28;;;;;;;0.68;0.60;;;;;;;;;;4979588;28;20015;-81
2023/03/13 00:14:54;;;;;;;1.33;0.60;;;;;;;;;;4974843;28;20474;-81
2023/03/13 00:17:20;;;;;;;0.88;0.63;;;;;;;;;;4972653;28;20027;-82
2023/03/13 00:19:46;;;;;;;1.23;0.85;;;;;;;;;;4969435;28;20038;-82
2023/03/13 00:22:12;;;;;;;1.10;0.70;;;;;;;;;;4970710;28;20034;-81
2023/03/13 00:24:38;;;;;;;1.00;0.63;;;;;;;;;;4969064;28;20026;-81
2023/03/13 00:27:04;;;;;;;2.05;0.88;;;;;;;;;;4970179;28;20544;-81
2023/03/13 00:29:30;;;;;;;1.55;0.90;;;;;;;;;;4971043;28;20069;-81
2023/03/13 00:31:56;;;;;;;0.82;0.80;;;;;;;;;;4968617;28;20055;-81
2023/03/13 00:34:25;;;;;;;0.63;0.63;;;;;;;;;;4975728;28;20034;-81
2023/03/13 00:36:51;;;;;;;0.82;0.60;;;;;;;;;;4968074;28;20049;-81
2023/03/13 00:39:17;;;;;;;0.70;0.50;;;;;;;;;;4970487;28;20619;-81
2023/03/13 00:41:43;;;;;;;3.25;0.98;;;;;;;;;;4974990;28;20054;-81
2023/03/13 00:44:09;;;;;;;0.90;0.65;;;;;;;;;;4969259;28;20026;-80
2023/03/13 00:46:35;;;;;;;0.70;0.60;;;;;;;;;;4974344;28;20477;-81
2023/03/13 00:49:01;;;;;;;3.42;1.10;;;;;;;;;;4967917;28;20034;-81
2023/03/13 00:51:28;;;;;;;0.60;0.60;;;;;;;;;;4959595;28;20043;-83
2023/03/13 00:54:00;;;;;;;0.50;0.50;;;;;;;;;;4972487;28;20057;-81
2023/03/13 00:56:26;;;;;;;0.93;0.75;;;;;;;;;;4971084;28;20035;-81
2023/03/13 00:58:52;;;;;;;0.60;0.60;;;;;;;;;;4976647;28;20113;-81
2023/03/13 01:01:26;;;;;;;2.25;1.02;;;;;;;;;;4968648;28;20038;-81
2023/03/13 01:03:53;;;;;;;1.17;0.68;;;;;;;;;;4975243;28;20030;-81
2023/03/13 01:06:21;;;;;;;1.27;1.10;;;;;;;;;;4976213;28;20034;-80
2023/03/13 01:08:47;;;;;;;1.23;0.60;;;;;;;;;;4970750;28;20026;-80
2023/03/13 01:11:17;;;;;;;2.92;0.73;;;;;;;;;;4971901;28;20029;-80
2023/03/13 01:13:43;;;;;;;0.47;0.47;;;;;;;;;;4975106;28;20038;-80
2023/03/13 01:16:11;;;;;;;1.52;0.75;;;;;;;;;;4977846;28;20031;-80
2023/03/13 01:18:38;;;;;;;2.47;1.10;;;;;;;;;;4968312;28;20049;-80
2023/03/13 01:21:04;;;;;;;0.80;0.73;;;;;;;;;;4976466;28;20033;-81
2023/03/13 01:23:30;;;;;;;1.42;0.63;;;;;;;;;;4970151;28;20030;-82
2023/03/13 01:25:56;;;;;;;2.60;0.75;;;;;;;;;;4977459;28;20034;-81
2023/03/13 01:28:23;;;;;;;1.38;0.65;;;;;;;;;;4968498;28;20364;-81
2023/03/13 01:30:49;;;;;;;0.55;0.55;;;;;;;;;;4975716;28;20491;-80
2023/03/13 01:33:15;;;;;;;1.67;0.70;;;;;;;;;;4972081;28;20026;-80
2023/03/13 01:35:41;;;;;;;1.77;0.60;;;;;;;;;;4972729;28;20037;-80
2023/03/13 01:38:07;;;;;;;0.85;0.75;;;;;;;;;;4973832;28;20030;-80
2023/03/13 01:40:47;;;;;;;2.13;1.52;;;;;;;;;;4977562;28;20500;-81
2023/03/13 01:43:18;;;;;;;1.10;0.70;;;;;;;;;;4975858;28;20034;-80
2023/03/13 01:46:03;;;;;;;0.77;0.55;;;;;;;;;;4970882;28;20090;-80
2023/03/13 01:48:35;;;;;;;1.42;1.00;;;;;;;;;;4968292;28;20492;-80
2023/03/13 01:51:03;;;;;;;1.05;0.77;;;;;;;;;;4972131;28;20054;-80
2023/03/13 01:53:31;;;;;;;0.60;0.60;;;;;;;;;;4967571;28;20031;-81
2023/03/13 01:55:57;;;;;;;2.65;1.13;;;;;;;;;;4971307;28;20042;-81
2023/03/13 01:58:24;;;;;;;1.90;0.70;;;;;;;;;;4969102;28;20042;-81
2023/03/13 02:00:50;;;;;;;1.08;0.73;;;;;;;;;;4980284;28;20057;-81
2023/03/13 02:03:17;;;;;;;0.57;0.57;;;;;;;;;;4975247;28;20507;-81
2023/03/13 02:05:44;;;;;;;1.65;0.93;;;;;;;;;;4969685;28;20114;-81
2023/03/13 02:08:29;;;;;;;1.77;0.90;;;;;;;;;;4975615;28;20022;-81
2023/03/13 02:11:07;;;;;;;3.13;0.85;;;;;;;;;;4974616;28;20126;-81
2023/03/13 02:13:33;;;;;;;0.70;0.70;;;;;;;;;;4973253;28;20056;-82
2023/03/13 02:15:59;;;;;;;1.25;0.60;;;;;;;;;;4978875;28;20038;-80
2023/03/13 02:18:26;;;;;;;0.75;0.63;;;;;;;;;;4978166;28;20054;-80
2023/03/13 02:20:54;;;;;;;0.65;0.60;;;;;;;;;;4974862;28;20038;-80
2023/03/13 02:23:24;;;;;;;1.80;0.70;;;;;;;;;;4969141;28;20520;-81
2023/03/13 02:25:52;;;;;;;0.50;0.50;;;;;;;;;;4967858;28;20038;-81
2023/03/13 02:28:27;;;;;;;1.15;0.57;;;;;;;;;;4967875;28;20023;-80
2023/03/13 02:30:55;;;;;;;1.73;0.95;;;;;;;;;;4970207;28;20113;-81
2023/03/13 02:33:22;;;;;;;2.80;1.00;;;;;;;;;;4976249;28;20184;-80
2023/03/13 02:35:48;;;;;;;0.98;0.80;;;;;;;;;;4970516;28;20505;-81
2023/03/13 02:38:18;;;;;;;0.70;0.70;;;;;;;;;;4973556;28;20030;-80
2023/03/13 02:40:45;;;;;;;1.25;1.05;;;;;;;;;;4967305;28;20054;-82
2023/03/13 02:43:14;;;;;;;1.02;0.73;;;;;;;;;;4970468;28;20029;-83
2023/03/13 02:45:40;;;;;;;4.10;0.75;;;;;;;;;;4968908;28;20042;-81
2023/03/13 02:48:06;;;;;;;1.25;0.80;;;;;;;;;;4968772;28;20027;-81
2023/03/13 02:50:32;;;;;;;1.42;0.60;;;;;;;;;;4965920;28;20117;-81
2023/03/13 02:53:00;;;;;;;0.65;0.65;;;;;;;;;;4978829;28;20439;-81
2023/03/13 02:55:29;;;;;;;2.35;0.75;;;;;;;;;;4973007;28;20019;-81
2023/03/13 02:57:55;;;;;;;0.93;0.47;;;;;;;;;;4968496;28;20034;-81
2023/03/13 03:00:25;;;;;;;2.28;1.02;;;;;;;;;;4966449;28;20303;-81
2023/03/13 03:02:52;;;;;;;1.58;0.85;;;;;;;;;;4971547;28;20058;-81
2023/03/13 03:05:19;;;;;;;1.35;0.73;;;;;;;;;;4969746;28;20035;-82
2023/03/13 03:07:45;;;;;;;3.22;1.00;;;;;;;;;;4976224;28;20035;-82
2023/03/13 03:10:11;;;;;;;6.25;1.02;;;;;;;;;;4968346;28;20034;-81
2023/03/13 03:12:37;;;;;;;0.98;0.55;;;;;;;;;;4967954;28;20036;-81
2023/03/13 03:15:03;;;;;;;0.80;0.60;;;;;;;;;;4969871;28;20023;-81
2023/03/13 03:17:29;;;;;;;5.43;0.98;;;;;;;;;;4967495;28;20550;-81
2023/03/13 03:19:55;;;;;;;4.95;0.75;;;;;;;;;;4967490;28;20045;-81
2023/03/13 03:22:21;;;;;;;0.90;0.47;;;;;;;;;;4975143;28;20031;-81
2023/03/13 03:24:47;;;;;;;0.55;0.50;;;;;;;;;;4973238;28;20388;-83
2023/03/13 03:27:13;;;;;;;2.78;1.13;;;;;;;;;;4967226;28;20070;-81
2023/03/13 03:29:39;;;;;;;1.00;0.77;;;;;;;;;;4967348;28;20499;-81
2023/03/13 03:32:06;;;;;;;2.95;1.27;;;;;;;;;;4968225;28;20443;-81
2023/03/13 03:34:31;;;;;;;1.73;0.80;;;;;;;;;;4971393;28;20031;-80
2023/03/13 03:36:57;;;;;;;1.13;0.95;;;;;;;;;;4967913;28;20069;-80
2023/03/13 03:39:24;;;;;;;1.80;0.70;;;;;;;;;;4968659;28;20031;-81
2023/03/13 03:41:50;;;;;;;2.95;0.85;;;;;;;;;;4973763;28;20490;-81
2023/03/13 03:44:16;;;;;;;1.30;0.70;;;;;;;;;;4968777;28;20073;-81
2023/03/13 03:46:42;;;;;;;1.10;0.60;;;;;;;;;;4975585;28;20513;-81
2023/03/13 03:49:07;;;;;;;0.98;0.98;;;;;;;;;;4970240;28;20481;-80
2023/03/13 03:51:33;;;;;;;0.98;0.63;;;;;;;;;;4973163;28;20480;-80
2023/03/13 03:53:59;;;;;;;1.20;0.63;;;;;;;;;;4971191;28;20585;-80
2023/03/13 03:56:25;;;;;;;0.82;0.80;;;;;;;;;;4974715;28;20038;-80
2023/03/13 03:58:51;;;;;;;0.73;0.47;;;;;;;;;;4970603;28;20053;-80
2023/03/13 04:01:17;;;;;;;1.63;0.60;;;;;;;;;;4974464;28;20039;-81
2023/03/13 04:03:43;;;;;;;2.47;1.67;;;;;;;;;;4977475;28;20030;-80
2023/03/13 04:06:09;;;;;;;1.52;0.80;;;;;;;;;;4974845;28;20037;-80
2023/03/13 04:08:36;;;;;;;0.73;0.50;;;;;;;;;;4970615;28;20027;-80
2023/03/13 04:11:02;;;;;;;1.02;0.77;;;;;;;;;;4970956;28;20444;-80
2023/03/13 04:13:28;;;;;;;0.50;0.50;;;;;;;;;;4977972;28;20027;-80
2023/03/13 04:15:54;;;;;;;1.35;0.52;;;;;;;;;;4973614;28;20030;-81
2023/03/13 04:18:19;;;;;;;1.55;0.93;;;;;;;;;;4972469;28;20550;-81
2023/03/13 04:20:46;;;;;;;3.00;0.75;;;;;;;;;;4969026;28;20035;-80
2023/03/13 04:23:12;;;;;;;1.20;0.95;;;;;;;;;;4974497;28;20109;-81
2023/03/13 04:25:38;;;;;;;0.75;0.73;;;;;;;;;;4980042;28;20566;-80
2023/03/13 04:28:04;;;;;;;2.15;0.50;;;;;;;;;;4973542;28;20054;-81
2023/03/13 04:30:30;;;;;;;0.75;0.63;;;;;;;;;;4967494;28;20035;-81
2023/03/13 04:32:56;;;;;;;0.95;0.95;;;;;;;;;;4969463;28;20030;-80
2023/03/13 04:35:22;;;;;;;1.02;0.63;;;;;;;;;;4974618;28;20067;-81
2023/03/13 04:37:48;;;;;;;2.65;0.57;;;;;;;;;;4967936;28;20117;-80
2023/03/13 04:40:14;;;;;;;1.70;0.60;;;;;;;;;;4973904;28;20026;-80
2023/03/13 04:42:41;;;;;;;1.45;0.80;;;;;;;;;;4980621;28;20101;-80
2023/03/13 04:45:09;;;;;;;0.60;0.60;;;;;;;;;;4970834;28;20019;-80
2023/03/13 04:47:35;;;;;;;2.25;0.60;;;;;;;;;;4970106;28;20109;-81
2023/03/13 04:50:01;;;;;;;1.23;0.70;;;;;;;;;;4975937;28;20029;-83
2023/03/13 04:52:27;;;;;;;2.50;1.00;;;;;;;;;;4972128;28;20034;-80
2023/03/13 04:54:53;;;;;;;0.98;0.70;;;;;;;;;;4973864;28;20026;-80
2023/03/13 04:57:19;;;;;;;1.75;0.80;;;;;;;;;;4967993;28;20059;-80
2023/03/13 04:59:50;;;;;;;2.33;1.17;;;;;;;;;;4972908;28;20019;-80
2023/03/13 05:02:16;;;;;;;1.55;0.45;;;;;;;;;;4952376;28;20027;-80
2023/03/13 05:04:42;;;;;;;1.33;0.50;;;;;;;;;;4967834;28;20022;-80
2023/03/13 05:07:08;;;;;;;2.35;0.90;;;;;;;;;;4976247;28;20023;-80
2023/03/13 05:09:34;;;;;;;2.53;0.70;;;;;;;;;;4969497;28;20038;-80
2023/03/13 05:12:00;;;;;;;3.75;0.50;;;;;;;;;;4974333;28;20035;-80
2023/03/13 05:14:29;;;;;;;2.00;0.70;;;;;;;;;;4969642;28;20490;-80
2023/03/13 05:16:55;;;;;;;0.55;0.55;;;;;;;;;;4967978;28;20084;-80
2023/03/13 05:19:21;;;;;;;1.45;0.77;;;;;;;;;;4968478;28;20043;-81
2023/03/13 05:21:47;;;;;;;2.42;0.68;;;;;;;;;;4970815;28;20032;-81
2023/03/13 05:24:13;;;;;;;0.82;0.70;;;;;;;;;;4972809;28;20045;-81
2023/03/13 05:26:38;;;;;;;1.75;0.80;;;;;;;;;;4969855;28;20031;-80
2023/03/13 05:29:07;;;;;;;2.15;0.40;;;;;;;;;;4978823;28;20026;-82
2023/03/13 05:31:33;;;;;;;3.13;0.70;;;;;;;;;;4975133;28;20105;-81
2023/03/13 05:33:59;;;;;;;2.20;1.13;;;;;;;;;;4971872;28;20484;-80
2023/03/13 05:36:25;;;;;;;0.47;0.47;;;;;;;;;;4966719;28;20489;-81
2023/03/13 05:38:51;;;;;;;1.75;0.68;;;;;;;;;;4970366;28;20549;-81
2023/03/13 05:41:17;;;;;;;0.70;0.47;;;;;;;;;;4968158;28;20039;-81
2023/03/13 05:43:43;;;;;;;1.23;0.70;;;;;;;;;;4967934;28;20027;-81
2023/03/13 05:46:09;;;;;;;2.17;0.98;;;;;;;;;;4972142;28;20034;-80
2023/03/13 05:48:35;;;;;;;3.53;0.45;;;;;;;;;;4973623;28;20026;-81
2023/03/13 05:51:01;;;;;;;1.13;0.77;;;;;;;;;;4975125;28;20066;-81
2023/03/13 05:53:27;;;;;;;0.90;0.60;;;;;;;;;;4970533;28;20035;-81
2023/03/13 05:55:56;;;;;;;1.02;0.80;;;;;;;;;;4973664;28;20038;-80
2023/03/13 05:58:22;;;;;;;0.70;0.60;;;;;;;;;;4972971;28;20053;-81
2023/03/13 06:00:48;;;;;;;0.70;0.70;;;;;;;;;;4972436;28;20359;-80
2023/03/13 06:03:14;;;;;;;3.40;1.08;;;;;;;;;;4975823;28;20121;-80
2023/03/13 06:05:40;;;;;;;2.40;0.88;;;;;;;;;;4969439;28;20026;-81
2023/03/13 06:08:06;;;;;;;3.08;1.08;;;;;;;;;;4969261;28;20386;-80
2023/03/13 06:10:32;;;;;;;3.17;0.98;;;;;;;;;;4966751;28;20077;-80
2023/03/13 06:12:58;;;;;;;1.25;0.88;;;;;;;;;;4969450;28;20031;-80
2023/03/13 06:15:24;;;;;;;1.10;0.73;;;;;;;;;;4969365;28;20046;-81
2023/03/13 06:17:50;;;;;;;1.50;0.65;;;;;;;;;;4972819;28;20038;-80
2023/03/13 06:20:16;;;;;;;1.48;0.52;;;;;;;;;;4970626;28;20038;-80
2023/03/13 06:22:42;;;;;;;1.58;1.23;;;;;;;;;;4973610;28;20040;-81
2023/03/13 06:25:08;;;;;;;1.63;0.73;;;;;;;;;;4966313;28;20018;-81
2023/03/13 06:27:34;;;;;;;7.50;0.98;;;;;;;;;;4980548;28;20027;-81
2023/03/13 06:30:00;;;;;;;3.33;0.80;;;;;;;;;;4975232;28;20030;-81
2023/03/13 06:32:27;;;;;;;1.85;0.77;;;;;;;;;;4967169;28;20037;-84
2023/03/13 06:34:53;;;;;;;0.95;0.60;;;;;;;;;;4973272;28;20031;-78
2023/03/13 06:37:19;;;;;;;6.25;1.55;;;;;;;;;;4970808;28;20096;-80
2023/03/13 06:39:45;;;;;;;2.40;0.80;;;;;;;;;;4967466;28;20030;-81
2023/03/13 06:42:11;;;;;;;0.80;0.60;;;;;;;;;;4977302;28;20567;-82
2023/03/13 06:44:37;;;;;;;1.70;0.57;;;;;;;;;;4979613;28;20093;-81
2023/03/13 06:47:03;;;;;;;1.40;0.80;;;;;;;;;;4968366;28;20035;-82
2023/03/13 06:49:29;;;;;;;1.70;0.75;;;;;;;;;;4977533;28;20031;-84
2023/03/13 06:51:57;;;;;;;3.05;0.82;;;;;;;;;;4968537;28;20026;-84
2023/03/13 06:54:23;;;;;;;0.68;0.68;;;;;;;;;;4977194;28;20050;-85
2023/03/13 06:56:49;;;;;;;7.50;0.98;;;;;;;;;;4976529;28;20050;-87
2023/03/13 06:59:15;;;;;;;0.88;0.68;;;;;;;;;;4971004;28;20481;-82
2023/03/13 07:01:41;;;;;;;0.80;0.80;;;;;;;;;;4969747;28;20027;-82
2023/03/13 07:04:10;;;;;;;3.47;0.80;;;;;;;;;;4952171;28;20054;-81
2023/03/13 07:06:36;;;;;;;1.55;0.73;;;;;;;;;;4964068;28;20121;-82
2023/03/13 07:09:03;;;;;;;2.25;1.10;;;;;;;;;;4980352;28;20023;-80
2023/03/13 07:11:29;;;;;;;0.90;0.73;;;;;;;;;;4972284;28;20070;-78
2023/03/13 07:13:55;;;;;;;1.27;0.85;;;;;;;;;;4968165;28;20035;-85
2023/03/13 07:16:22;;;;;;;1.85;0.60;;;;;;;;;;4967396;28;20034;-83
2023/03/13 07:18:47;;;;;;;1.25;0.63;;;;;;;;;;4967934;28;20121;-85
2023/03/13 07:21:14;;;;;;;2.90;1.25;;;;;;;;;;4965601;28;20043;-88
2023/03/13 07:23:40;;;;;;;2.67;1.38;;;;;;;;;;4967834;28;20030;-85
2023/03/13 07:26:07;;;;;;;1.00;0.80;;;;;;;;;;4966236;28;20465;-86
2023/03/13 07:28:34;;;;;;;1.33;0.98;;;;;;;;;;4968880;28;20030;-85
2023/03/13 07:31:04;;;;;;;1.80;0.60;;;;;;;;;;4967345;28;20031;-76
2023/03/13 07:33:30;;;;;;;1.08;0.98;;;;;;;;;;4969934;28;20089;-77
2023/03/13 07:35:56;;;;;;;2.80;0.70;;;;;;;;;;4963761;28;20429;-74
2023/03/13 07:38:22;;;;;;;2.85;1.08;;;;;;;;;;4965936;28;20039;-74
2023/03/13 07:40:51;;;;;;;1.83;0.57;;;;;;;;;;4965180;28;20073;-74
2023/03/13 07:43:17;;;;;;;0.63;0.43;;;;;;;;;;4965423;28;20022;-74
2023/03/13 07:45:50;;;;;;;1.20;0.65;;;;;;;;;;4965370;28;20382;-74
2023/03/13 07:48:16;;;;;;;0.95;0.57;;;;;;;;;;4966395;28;20026;-74
2023/03/13 07:50:42;;;;;;;1.23;0.68;;;;;;;;;;4963503;28;20061;-83
2023/03/13 07:53:08;;;;;;;3.03;0.98;;;;;;;;;;4961868;28;20062;-83
2023/03/13 07:55:34;;;;;;;1.45;0.82;;;;;;;;;;4955304;28;20062;-83
2023/03/13 07:58:00;;;;;;;1.63;0.75;;;;;;;;;;4965628;28;20035;-82
2023/03/13 08:00:26;;;;;;;2.00;1.10;;;;;;;;;;4967563;28;20023;-82
2023/03/13 08:03:08;;;;;;;0.52;0.50;;;;;;;;;;4965351;28;20440;-83
2023/03/13 08:05:34;;;;;;;2.38;1.05;;;;;;;;;;4964758;28;20027;-82
2023/03/13 08:08:00;;;;;;;2.88;0.77;;;;;;;;;;4963394;28;20034;-82
2023/03/13 08:10:26;;;;;;;1.25;0.80;;;;;;;;;;4966660;28;20037;-82
2023/03/13 08:12:52;;;;;;;2.20;0.75;;;;;;;;;;4966136;28;20101;-82
2023/03/13 08:15:24;;;;;;;1.48;0.80;;;;;;;;;;4964214;28;20039;-78
2023/03/13 08:17:50;;;;;;;1.20;0.73;;;;;;;;;;4967612;28;20389;-77
2023/03/13 08:20:17;;;;;;;0.93;0.60;;;;;;;;;;4965267;28;20085;-80
2023/03/13 08:22:45;;;;;;;6.40;0.70;;;;;;;;;;4964926;28;20062;-81
2023/03/13 08:25:16;;;;;;;1.38;0.55;;;;;;;;;;4967766;28;20050;-85
2023/03/13 08:27:42;;;;;;;;;;;;;;;;;;4966272;28;20398;-85
2023/03/13 08:30:08;;;;;;;2.67;0.60;;;;;;;;;;4967664;28;20026;-83
2023/03/13 08:32:35;;;;;;;1.27;1.00;;;;;;;;;;4949742;28;20042;-77
2023/03/13 08:35:02;;;;;;;3.22;0.70;;;;;;;;;;4959807;28;20507;-77
2023/03/13 08:37:28;;;;;;;2.97;1.17;;;;;;;;;;4958434;28;20023;-78
2023/03/13 08:39:55;;;;;;;1.38;0.63;;;;;;;;;;4962964;28;20034;-78
2023/03/13 08:42:21;;;;;;;0.52;0.52;;;;;;;;;;4956284;28;20051;-77
2023/03/13 08:44:47;;;;;;;1.13;0.52;;;;;;;;;;4958585;28;20035;-77
2023/03/13 08:47:13;;;;;;;6.25;0.60;;;;;;;;;;4960660;28;20675;-77
2023/03/13 08:49:39;;;;;;;3.65;0.57;;;;;;;;;;4953043;28;20122;-85
2023/03/13 08:52:05;;;;;;;0.40;0.40;;;;;;;;;;4954963;28;20122;-77
2023/03/13 08:54:32;;;;;;;1.98;0.63;;;;;;;;;;4956299;28;20070;-77
2023/03/13 08:56:58;;;;;;;3.10;0.73;;;;;;;;;;4956129;28;20042;-76
2023/03/13 08:59:25;;;;;;;4.63;1.02;;;;;;;;;;4956488;28;20105;-76
2023/03/13 09:01:51;;;;;;;2.78;1.10;;;;;;;;;;4958553;28;20038;-76
2023/03/13 09:04:17;;;;;;;2.95;0.70;;;;;;;;;;4959935;28;20114;-80
2023/03/13 09:06:43;;;;;;;0.95;0.57;;;;;;;;;;4953957;28;20018;-76
2023/03/13 09:09:09;;;;;;;0.55;0.55;;;;;;;;;;4952655;28;20518;-78
2023/03/13 09:11:36;;;;;;;3.47;0.70;;;;;;;;;;4957923;28;20043;-83
2023/03/13 09:14:02;;;;;;;7.88;0.65;;;;;;;;;;4955942;28;20106;-75
2023/03/13 09:16:32;;;;;;;0.77;0.52;;;;;;;;;;4961049;28;20062;-77
2023/03/13 09:18:58;;;;;;;1.77;0.60;;;;;;;;;;4960726;28;20407;-79
2023/03/13 09:21:32;;;;;;;3.03;0.75;;;;;;;;;;4966835;28;20105;-77
2023/03/13 09:23:58;;;;;;;1.27;0.60;;;;;;;;;;4960405;28;20026;-78
2023/03/13 09:26:25;;;;;;;1.67;0.70;;;;;;;;;;4959350;28;20027;-80
2023/03/13 09:28:51;;;;;;;2.05;0.77;;;;;;;;;;4962097;28;20058;-78
2023/03/13 09:31:18;;;;;;;1.15;0.60;;;;;;;;;;4965842;28;20034;-78
2023/03/13 09:33:45;;;;;;;0.63;0.60;;;;;;;;;;4967176;28;20657;-78
2023/03/13 09:36:12;;;;;;;4.35;0.77;;;;;;;;;;4963220;28;20504;-78
2023/03/13 09:38:38;;;;;;;2.80;1.10;;;;;;;;;;4962871;28;21935;-79
2023/03/13 09:41:16;;;;;;;2.22;0.75;;;;;;;;;;4964555;28;20046;-79
2023/03/13 09:43:42;;;;;;;1.88;0.90;;;;;;;;;;4964151;28;20045;-79
2023/03/13 09:46:15;;;;;;;3.65;0.80;;;;;;;;;;4967788;28;20053;-80
2023/03/13 09:48:47;;;;;;;1.10;1.00;;;;;;;;;;4964100;28;20026;-78
2023/03/13 09:51:16;;;;;;;2.35;0.50;;;;;;;;;;4963954;28;20030;-77
2023/03/13 09:53:45;;;;;;;1.58;0.93;;;;;;;;;;4964765;28;20444;-80
2023/03/13 09:56:15;;;;;;;1.98;1.05;;;;;;;;;;4965089;28;20705;-78
2023/03/13 09:58:43;;;;;;;0.57;0.50;;;;;;;;;;4966305;28;20154;-77
2023/03/13 10:01:10;;;;;;;0.73;0.40;;;;;;;;;;4965743;28;20094;-78
2023/03/13 10:03:43;;;;;;;3.30;1.05;;;;;;;;;;4959252;28;20053;-78
2023/03/13 10:06:15;;;;;;;1.65;0.47;;;;;;;;;;4945089;28;20026;-78
2023/03/13 10:08:41;;;;;;;0.57;0.47;;;;;;;;;;4957226;28;20132;-78
2023/03/13 10:11:12;;;;;;;0.80;0.70;;;;;;;;;;4962749;28;20533;-78
2023/03/13 10:13:44;;;;;;;2.00;0.60;;;;;;;;;;4966553;28;20038;-78
2023/03/13 10:16:22;;;;;;;0.70;0.40;;;;;;;;;;4964461;28;20063;-78
2023/03/13 10:18:52;;;;;;;0.75;0.60;;;;;;;;;;4965173;28;20607;-78
2023/03/13 10:21:20;;;;;;;1.80;0.50;;;;;;;;;;4965246;28;20334;-78
2023/03/13 10:23:49;;;;;;;1.17;0.55;;;;;;;;;;4967968;28;20050;-78
2023/03/13 10:26:20;;;;;;;1.58;0.70;;;;;;;;;;4965874;28;20089;-78
2023/03/13 10:28:47;;;;;;;2.00;1.35;;;;;;;;;;4967305;28;20163;-78
2023/03/13 10:31:18;;;;;;;0.50;0.45;;;;;;;;;;4966447;28;20145;-78
2023/03/13 10:33:44;;;;;;;0.90;0.65;;;;;;;;;;4955254;28;20026;-78
2023/03/13 10:36:11;;;;;;;0.90;0.60;;;;;;;;;;4957741;28;20053;-77
2023/03/13 10:38:50;;;;;;;1.50;0.75;;;;;;;;;;4957807;28;20109;-78
2023/03/13 10:41:19;;;;;;;3.13;0.70;;;;;;;;;;4959252;28;20046;-79
2023/03/13 10:43:52;;;;;;;0.40;0.40;;;;;;;;;;4960624;28;20038;-78
2023/03/13 10:46:25;;;;;;;1.23;0.47;;;;;;;;;;4963788;28;20055;-78
2023/03/13 10:48:53;;;;;;;1.20;0.82;;;;;;;;;;4962699;28;20027;-81
2023/03/13 10:51:23;;;;;;;1.15;0.55;;;;;;;;;;4966980;28;20026;-81
2023/03/13 10:53:52;;;;;;;2.45;0.52;;;;;;;;;;4968697;28;20173;-83
2023/03/13 10:56:29;;;;;;;1.27;0.50;;;;;;;;;;4968588;28;20532;-76
2023/03/13 10:58:55;;;;;;;3.45;0.60;;;;;;;;;;4967792;28;20035;-79
2023/03/13 11:01:32;;;;;;;0.57;0.40;;;;;;;;;;4968467;28;20034;-79
2023/03/13 11:04:01;;;;;;;0.50;0.50;;;;;;;;;;4965954;28;20131;-79
2023/03/13 11:06:31;;;;;;;1.00;0.68;;;;;;;;;;4969209;28;20050;-79
2023/03/13 11:09:13;;;;;;;2.08;0.70;;;;;;;;;;4969175;28;20027;-79
2023/03/13 11:11:43;;;;;;;4.10;0.60;;;;;;;;;;4968044;28;20104;-79
2023/03/13 11:14:13;;;;;;;2.47;0.82;;;;;;;;;;4968791;28;20045;-79
2023/03/13 11:16:45;;;;;;;1.45;0.65;;;;;;;;;;4969010;28;20027;-79
2023/03/13 11:19:13;;;;;;;1.17;0.50;;;;;;;;;;4968842;28;20033;-79
2023/03/13 11:21:44;;;;;;;0.77;0.60;;;;;;;;;;4967471;28;20027;-80
2023/03/13 11:24:14;;;;;;;0.40;0.40;;;;;;;;;;4968014;28;20041;-79
2023/03/13 11:26:49;;;;;;;0.82;0.50;;;;;;;;;;4969057;28;20693;-79
2023/03/13 11:29:26;;;;;;;5.53;0.55;;;;;;;;;;4968815;28;20033;-80
2023/03/13 11:31:58;;;;;;;0.40;0.38;;;;;;;;;;4967876;28;20037;-79
2023/03/13 11:34:31;;;;;;;0.82;0.50;;;;;;;;;;4968138;28;20097;-79
2023/03/13 11:37:10;;;;;;;1.35;0.45;;;;;;;;;;4967714;28;20030;-79
2023/03/13 11:39:54;;;;;;;1.13;0.30;;;;;;;;;;4968826;28;20029;-79
2023/03/13 11:42:26;;;;;;;0.30;0.30;;;;;;;;;;4968236;28;20050;-79
2023/03/13 11:44:52;;;;;;;0.43;0.43;;;;;;;;;;4968252;28;20130;-79
2023/03/13 11:47:37;;;;;;;2.60;0.55;;;;;;;;;;4967858;28;20199;-80
2023/03/13 11:50:22;;;;;;;0.68;0.50;;;;;;;;;;4968608;28;20066;-80
2023/03/13 11:53:12;;;;;;;1.02;0.40;;;;;;;;;;4968567;28;20490;-80
2023/03/13 11:55:41;;;;;;;0.40;0.40;;;;;;;;;;4962165;28;20046;-79
2023/03/13 11:58:26;;;;;;;0.88;0.70;;;;;;;;;;4967158;28;20402;-80
2023/03/13 12:00:59;;;;;;;0.40;0.30;;;;;;;;;;4968414;28;20035;-80
2023/03/13 12:03:44;;;;;;;0.40;0.40;;;;;;;;;;4968877;28;20034;-80
2023/03/13 12:06:15;;;;;;;1.38;0.90;;;;;;;;;;4970716;28;20038;-80
2023/03/13 12:08:44;;;;;;;0.68;0.63;;;;;;;;;;4972184;28;20535;-79
2023/03/13 12:11:16;;;;;;;1.48;0.85;;;;;;;;;;4972189;28;20298;-79
2023/03/13 12:13:41;;;;;;;;;;;;;;;;;;4972498;28;20027;-79
2023/03/13 12:16:20;;;;;;;1.05;0.60;;;;;;;;;;4969592;28;19937;-80
2023/03/13 12:18:46;;;;;;;0.90;0.50;;;;;;;;;;4960705;28;20063;-80
2023/03/13 12:21:17;;;;;;;0.75;0.68;;;;;;;;;;4971808;28;20035;-80
2023/03/13 12:23:49;;;;;;;1.08;0.47;;;;;;;;;;4971507;28;20058;-80
2023/03/13 12:26:17;;;;;;;0.30;0.30;;;;;;;;;;4971746;28;20050;-80
2023/03/13 12:28:51;;;;;;;0.40;0.40;;;;;;;;;;4969574;28;20701;-80
2023/03/13 12:31:28;;;;;;;0.47;0.47;;;;;;;;;;4956039;28;20034;-80
2023/03/13 12:33:59;;;;;;;0.52;0.52;;;;;;;;;;4971856;28;20027;-80
2023/03/13 12:36:31;;;;;;;1.30;0.45;;;;;;;;;;4971891;28;20030;-80
2023/03/13 12:39:14;;;;;;;0.43;0.40;;;;;;;;;;4969633;28;20074;-80
2023/03/13 12:41:42;;;;;;;0.95;0.85;;;;;;;;;;4970610;28;20046;-80
2023/03/13 12:44:19;;;;;;;0.90;0.80;;;;;;;;;;4971427;28;20122;-80
2023/03/13 12:46:54;;;;;;;0.25;0.25;;;;;;;;;;4971214;28;20046;-79
2023/03/13 12:49:36;;;;;;;1.63;0.50;;;;;;;;;;4970404;28;20520;-80
2023/03/13 12:52:09;;;;;;;0.68;0.40;;;;;;;;;;4971545;28;20066;-80
2023/03/13 12:55:00;;;;;;;0.45;0.35;;;;;;;;;;4970611;28;20093;-80
2023/03/13 12:57:45;;;;;;;0.47;0.47;;;;;;;;;;4971433;28;20279;-80
2023/03/13 13:00:15;;;;;;;0.43;0.30;;;;;;;;;;4970137;28;20035;-79
2023/03/13 13:02:41;;;;;;;0.60;0.22;;;;;;;;;;4968857;28;20041;-80
2023/03/13 13:05:17;;;;;;;1.08;0.30;;;;;;;;;;4971146;28;20043;-80
2023/03/13 13:07:51;;;;;;;0.98;0.30;;;;;;;;;;4970961;28;20598;-79
2023/03/13 13:10:20;;;;;;;1.48;0.47;;;;;;;;;;4970746;28;20030;-80
2023/03/13 13:12:47;;;;;;;1.05;0.35;;;;;;;;;;4970265;28;20034;-80
2023/03/13 13:15:22;;;;;;;0.40;0.40;;;;;;;;;;4969472;28;20041;-80
2023/03/13 13:17:50;;;;;;;1.23;0.57;;;;;;;;;;4970922;28;20160;-80
2023/03/13 13:20:25;;;;;;;1.73;0.52;;;;;;;;;;4970659;28;20114;-80
2023/03/13 13:22:51;;;;;;;0.85;0.65;;;;;;;;;;4969618;28;20034;-79
2023/03/13 13:25:17;;;;;;;0.82;0.30;;;;;;;;;;4969243;28;20027;-79
2023/03/13 13:27:43;;;;;;;0.70;0.68;;;;;;;;;;4970408;28;20029;-80
2023/03/13 13:30:18;;;;;;;1.35;0.40;;;;;;;;;;4979688;28;20046;-79
2023/03/13 13:32:54;;;;;;;0.20;0.20;;;;;;;;;;4973317;28;20027;-79
2023/03/13 13:35:22;;;;;;;0.30;0.30;;;;;;;;;;4969014;28;20049;-80
2023/03/13 13:37:49;;;;;;;0.30;0.30;;;;;;;;;;4970216;28;20312;-80
2023/03/13 13:40:15;;;;;;;0.50;0.50;;;;;;;;;;4970219;28;20027;-80
2023/03/13 13:42:53;;;;;;;0.22;0.22;;;;;;;;;;4969990;28;20046;-80
2023/03/13 13:45:27;;;;;;;0.60;0.30;;;;;;;;;;4968825;28;20023;-80
2023/03/13 13:48:11;;;;;;;0.30;0.30;;;;;;;;;;4970370;28;20027;-81
2023/03/13 13:50:37;;;;;;;0.20;0.20;;;;;;;;;;4970419;28;20066;-80
2023/03/13 13:53:22;;;;;;;0.82;0.60;;;;;;;;;;4970220;28;20045;-79
2023/03/13 13:55:48;;;;;;;0.40;0.40;;;;;;;;;;4969163;28;20039;-81
2023/03/13 13:58:21;;;;;;;0.35;0.30;;;;;;;;;;4970055;28;20034;-80
2023/03/13 14:00:53;;;;;;;0.30;0.30;;;;;;;;;;4970201;28;20038;-79
2023/03/13 14:03:21;;;;;;;0.40;0.40;;;;;;;;;;4969269;28;20035;-79
2023/03/13 14:05:51;;;;;;;0.52;0.47;;;;;;;;;;4968295;28;20050;-80
2023/03/13 14:08:21;;;;;;;0.20;0.20;;;;;;;;;;4969174;28;20027;-79
2023/03/13 14:11:06;;;;;;;0.77;0.50;;;;;;;;;;4969946;28;20447;-80
2023/03/13 14:13:32;;;;;;;0.38;0.38;;;;;;;;;;4969659;28;20474;-79
2023/03/13 14:16:10;;;;;;;0.65;0.43;;;;;;;;;;4968652;28;20038;-80
2023/03/13 14:18:42;;;;;;;0.88;0.50;;;;;;;;;;4970109;28;20034;-80
2023/03/13 14:21:12;;;;;;;0.63;0.60;;;;;;;;;;4968863;28;20034;-80
2023/03/13 14:23:42;;;;;;;0.88;0.55;;;;;;;;;;4969664;28;20355;-79
2023/03/13 14:26:10;;;;;;;0.40;0.35;;;;;;;;;;4969303;28;20035;-80
2023/03/13 14:28:37;;;;;;;1.00;0.55;;;;;;;;;;4966268;28;20482;-80
2023/03/13 14:31:03;;;;;;;0.38;0.38;;;;;;;;;;4969511;28;20031;-80
2023/03/13 14:33:29;;;;;;;0.30;0.30;;;;;;;;;;4969401;28;20518;-80
2023/03/13 14:35:56;;;;;;;0.20;0.20;;;;;;;;;;4969415;28;20030;-80
2023/03/13 14:38:24;;;;;;;0.80;0.30;;;;;;;;;;4968029;28;20035;-80
2023/03/13 14:40:51;;;;;;;0.30;0.30;;;;;;;;;;4969089;28;20051;-79
2023/03/13 14:43:21;;;;;;;1.08;0.50;;;;;;;;;;4969236;28;20113;-79
2023/03/13 14:45:48;;;;;;;0.30;0.30;;;;;;;;;;4969408;28;20033;-80
2023/03/13 14:48:20;;;;;;;0.85;0.47;;;;;;;;;;4969020;28;20082;-79
2023/03/13 14:50:46;;;;;;;0.30;0.30;;;;;;;;;;4968477;28;20031;-80